sensor_id;sensor_type;location;lat;lon;timestamp;P1;durP1;ratioP1;P2;durP2;ratioP2
28176;SDS011;15461;41.652;9.378;2023-06-24T00:02:09;29.92;;;7.65;;
28176;SDS011;15461;41.652;9.378;2023-06-24T00:04:34;31.80;;;7.75;;
28176;SDS011;15461;41.652;9.378;2023-06-24T00:07:00;31.13;;;8.35;;
28176;SDS011;15461;41.652;9.378;2023-06-24T00:09:26;25.08;;;7.80;;
28176;SDS011;15461;41.652;9.378;2023-06-24T00:11:53;32.60;;;8.77;;
28176;SDS011;15461;41.652;9.378;2023-06-24T00:14:20;27.85;;;7.75;;
28176;SDS011;15461;41.652;9.378;2023-06-24T00:16:49;33.78;;;8.27;;
28176;SDS011;15461;41.652;9.378;2023-06-24T00:19:25;27.02;;;8.25;;
28176;SDS011;15461;41.652;9.378;2023-06-24T00:21:52;31.27;;;8.00;;
28176;SDS011;15461;41.652;9.378;2023-06-24T00:24:19;30.48;;;7.97;;
28176;SDS011;15461;41.652;9.378;2023-06-24T00:26:46;33.17;;;8.45;;
28176;SDS011;15461;41.652;9.378;2023-06-24T00:29:12;30.30;;;9.18;;
28176;SDS011;15461;41.652;9.378;2023-06-24T00:31:38;26.85;;;8.40;;
28176;SDS011;15461;41.652;9.378;2023-06-24T00:34:04;30.20;;;8.38;;
28176;SDS011;15461;41.652;9.378;2023-06-24T00:36:30;29.60;;;8.30;;
28176;SDS011;15461;41.652;9.378;2023-06-24T00:39:00;33.95;;;8.98;;
28176;SDS011;15461;41.652;9.378;2023-06-24T00:41:30;29.15;;;8.05;;
28176;SDS011;15461;41.652;9.378;2023-06-24T00:43:57;26.48;;;7.40;;
28176;SDS011;15461;41.652;9.378;2023-06-24T00:46:24;28.55;;;8.32;;
28176;SDS011;15461;41.652;9.378;2023-06-24T00:48:53;22.55;;;7.28;;
28176;SDS011;15461;41.652;9.378;2023-06-24T00:51:24;31.20;;;8.38;;
28176;SDS011;15461;41.652;9.378;2023-06-24T00:53:54;35.03;;;9.02;;
28176;SDS011;15461;41.652;9.378;2023-06-24T00:56:34;24.38;;;8.05;;
28176;SDS011;15461;41.652;9.378;2023-06-24T00:59:03;24.60;;;7.95;;
28176;SDS011;15461;41.652;9.378;2023-06-24T01:01:32;21.92;;;7.47;;
28176;SDS011;15461;41.652;9.378;2023-06-24T01:04:01;28.33;;;8.85;;
28176;SDS011;15461;41.652;9.378;2023-06-24T01:06:28;21.35;;;7.15;;
28176;SDS011;15461;41.652;9.378;2023-06-24T01:08:57;24.73;;;7.10;;
28176;SDS011;15461;41.652;9.378;2023-06-24T01:11:31;24.90;;;7.85;;
28176;SDS011;15461;41.652;9.378;2023-06-24T01:13:57;40.90;;;8.02;;
28176;SDS011;15461;41.652;9.378;2023-06-24T01:18:50;28.50;;;7.65;;
28176;SDS011;15461;41.652;9.378;2023-06-24T01:21:41;31.23;;;7.93;;
28176;SDS011;15461;41.652;9.378;2023-06-24T01:29:41;27.05;;;7.13;;
28176;SDS011;15461;41.652;9.378;2023-06-24T01:32:22;27.45;;;7.40;;
28176;SDS011;15461;41.652;9.378;2023-06-24T01:35:08;23.40;;;7.88;;
28176;SDS011;15461;41.652;9.378;2023-06-24T01:37:42;27.65;;;7.95;;
28176;SDS011;15461;41.652;9.378;2023-06-24T01:42:59;28.98;;;8.23;;
28176;SDS011;15461;41.652;9.378;2023-06-24T01:45:28;27.03;;;7.80;;
28176;SDS011;15461;41.652;9.378;2023-06-24T01:48:05;27.90;;;7.93;;
28176;SDS011;15461;41.652;9.378;2023-06-24T01:50:36;38.80;;;8.40;;
28176;SDS011;15461;41.652;9.378;2023-06-24T01:53:05;32.97;;;8.15;;
28176;SDS011;15461;41.652;9.378;2023-06-24T01:55:32;29.90;;;7.85;;
28176;SDS011;15461;41.652;9.378;2023-06-24T01:58:02;23.95;;;7.43;;
28176;SDS011;15461;41.652;9.378;2023-06-24T02:00:31;20.90;;;7.75;;
28176;SDS011;15461;41.652;9.378;2023-06-24T02:02:58;30.58;;;8.15;;
28176;SDS011;15461;41.652;9.378;2023-06-24T02:05:27;28.48;;;7.95;;
28176;SDS011;15461;41.652;9.378;2023-06-24T02:07:53;23.30;;;7.43;;
28176;SDS011;15461;41.652;9.378;2023-06-24T02:10:22;26.40;;;7.40;;
28176;SDS011;15461;41.652;9.378;2023-06-24T02:12:49;31.63;;;7.60;;
28176;SDS011;15461;41.652;9.378;2023-06-24T02:15:16;26.40;;;7.20;;
28176;SDS011;15461;41.652;9.378;2023-06-24T02:17:43;31.38;;;7.50;;
28176;SDS011;15461;41.652;9.378;2023-06-24T02:20:10;39.53;;;9.07;;
28176;SDS011;15461;41.652;9.378;2023-06-24T02:22:37;29.50;;;7.95;;
28176;SDS011;15461;41.652;9.378;2023-06-24T02:25:04;28.08;;;7.40;;
28176;SDS011;15461;41.652;9.378;2023-06-24T02:27:32;31.33;;;8.48;;
28176;SDS011;15461;41.652;9.378;2023-06-24T02:30:00;29.65;;;8.40;;
28176;SDS011;15461;41.652;9.378;2023-06-24T02:32:28;25.10;;;7.50;;
28176;SDS011;15461;41.652;9.378;2023-06-24T02:34:54;27.45;;;7.82;;
28176;SDS011;15461;41.652;9.378;2023-06-24T02:37:22;25.83;;;8.10;;
28176;SDS011;15461;41.652;9.378;2023-06-24T02:39:47;28.80;;;8.15;;
28176;SDS011;15461;41.652;9.378;2023-06-24T02:42:13;32.58;;;8.80;;
28176;SDS011;15461;41.652;9.378;2023-06-24T02:44:39;25.65;;;7.32;;
28176;SDS011;15461;41.652;9.378;2023-06-24T02:47:06;26.23;;;7.82;;
28176;SDS011;15461;41.652;9.378;2023-06-24T02:49:36;27.80;;;7.95;;
28176;SDS011;15461;41.652;9.378;2023-06-24T02:52:04;24.02;;;7.72;;
28176;SDS011;15461;41.652;9.378;2023-06-24T02:54:31;22.63;;;7.43;;
28176;SDS011;15461;41.652;9.378;2023-06-24T02:57:16;32.13;;;8.13;;
28176;SDS011;15461;41.652;9.378;2023-06-24T03:00:04;26.33;;;7.80;;
28176;SDS011;15461;41.652;9.378;2023-06-24T03:02:58;26.27;;;7.85;;
28176;SDS011;15461;41.652;9.378;2023-06-24T03:05:25;28.70;;;8.13;;
28176;SDS011;15461;41.652;9.378;2023-06-24T03:07:53;35.55;;;8.68;;
28176;SDS011;15461;41.652;9.378;2023-06-24T03:10:22;25.20;;;8.13;;
28176;SDS011;15461;41.652;9.378;2023-06-24T03:12:49;31.38;;;8.45;;
28176;SDS011;15461;41.652;9.378;2023-06-24T03:15:16;33.65;;;8.13;;
28176;SDS011;15461;41.652;9.378;2023-06-24T03:17:41;32.20;;;8.20;;
28176;SDS011;15461;41.652;9.378;2023-06-24T03:20:08;27.15;;;8.10;;
28176;SDS011;15461;41.652;9.378;2023-06-24T03:22:36;28.88;;;7.72;;
28176;SDS011;15461;41.652;9.378;2023-06-24T03:25:07;34.53;;;8.43;;
28176;SDS011;15461;41.652;9.378;2023-06-24T03:27:34;29.45;;;7.93;;
28176;SDS011;15461;41.652;9.378;2023-06-24T03:30:01;28.10;;;8.05;;
28176;SDS011;15461;41.652;9.378;2023-06-24T03:32:29;25.88;;;8.05;;
28176;SDS011;15461;41.652;9.378;2023-06-24T03:34:55;31.27;;;8.48;;
28176;SDS011;15461;41.652;9.378;2023-06-24T03:37:21;29.48;;;7.95;;
28176;SDS011;15461;41.652;9.378;2023-06-24T03:39:47;29.98;;;8.00;;
28176;SDS011;15461;41.652;9.378;2023-06-24T03:42:13;30.42;;;8.77;;
28176;SDS011;15461;41.652;9.378;2023-06-24T03:44:39;26.13;;;8.73;;
28176;SDS011;15461;41.652;9.378;2023-06-24T03:47:05;27.20;;;7.50;;
28176;SDS011;15461;41.652;9.378;2023-06-24T03:49:31;29.15;;;7.85;;
28176;SDS011;15461;41.652;9.378;2023-06-24T03:51:56;26.58;;;7.72;;
28176;SDS011;15461;41.652;9.378;2023-06-24T03:54:23;28.48;;;7.63;;
28176;SDS011;15461;41.652;9.378;2023-06-24T03:56:49;23.00;;;8.15;;
28176;SDS011;15461;41.652;9.378;2023-06-24T03:59:15;25.90;;;8.00;;
28176;SDS011;15461;41.652;9.378;2023-06-24T04:01:41;23.30;;;7.78;;
28176;SDS011;15461;41.652;9.378;2023-06-24T04:04:07;26.38;;;7.82;;
28176;SDS011;15461;41.652;9.378;2023-06-24T04:06:32;21.40;;;7.25;;
28176;SDS011;15461;41.652;9.378;2023-06-24T04:08:58;21.65;;;6.95;;
28176;SDS011;15461;41.652;9.378;2023-06-24T04:11:24;28.45;;;7.63;;
28176;SDS011;15461;41.652;9.378;2023-06-24T04:13:50;17.45;;;6.75;;
28176;SDS011;15461;41.652;9.378;2023-06-24T04:16:16;18.83;;;7.68;;
28176;SDS011;15461;41.652;9.378;2023-06-24T04:18:42;22.67;;;7.60;;
28176;SDS011;15461;41.652;9.378;2023-06-24T04:21:08;28.90;;;7.65;;
28176;SDS011;15461;41.652;9.378;2023-06-24T04:23:34;27.88;;;7.97;;
28176;SDS011;15461;41.652;9.378;2023-06-24T04:26:00;20.50;;;7.32;;
28176;SDS011;15461;41.652;9.378;2023-06-24T04:28:26;25.85;;;8.00;;
28176;SDS011;15461;41.652;9.378;2023-06-24T04:30:51;23.50;;;7.85;;
28176;SDS011;15461;41.652;9.378;2023-06-24T04:33:20;22.40;;;7.40;;
28176;SDS011;15461;41.652;9.378;2023-06-24T04:35:46;24.08;;;7.47;;
28176;SDS011;15461;41.652;9.378;2023-06-24T04:38:12;19.83;;;8.10;;
28176;SDS011;15461;41.652;9.378;2023-06-24T04:40:44;25.48;;;8.35;;
28176;SDS011;15461;41.652;9.378;2023-06-24T04:43:10;25.38;;;7.85;;
28176;SDS011;15461;41.652;9.378;2023-06-24T04:45:36;28.75;;;7.47;;
28176;SDS011;15461;41.652;9.378;2023-06-24T04:48:01;27.23;;;7.35;;
28176;SDS011;15461;41.652;9.378;2023-06-24T04:50:27;22.92;;;7.47;;
28176;SDS011;15461;41.652;9.378;2023-06-24T04:52:53;20.70;;;6.78;;
28176;SDS011;15461;41.652;9.378;2023-06-24T04:55:22;24.80;;;7.97;;
28176;SDS011;15461;41.652;9.378;2023-06-24T04:57:48;25.88;;;7.55;;
28176;SDS011;15461;41.652;9.378;2023-06-24T05:00:14;30.90;;;8.30;;
28176;SDS011;15461;41.652;9.378;2023-06-24T05:02:40;32.30;;;8.20;;
28176;SDS011;15461;41.652;9.378;2023-06-24T05:05:06;26.52;;;8.43;;
28176;SDS011;15461;41.652;9.378;2023-06-24T05:07:32;21.02;;;7.88;;
28176;SDS011;15461;41.652;9.378;2023-06-24T05:09:58;25.20;;;8.27;;
28176;SDS011;15461;41.652;9.378;2023-06-24T05:12:24;24.88;;;7.90;;
28176;SDS011;15461;41.652;9.378;2023-06-24T05:14:50;30.40;;;7.45;;
28176;SDS011;15461;41.652;9.378;2023-06-24T05:17:19;28.20;;;8.10;;
28176;SDS011;15461;41.652;9.378;2023-06-24T05:19:45;27.55;;;7.78;;
28176;SDS011;15461;41.652;9.378;2023-06-24T05:22:11;23.83;;;8.35;;
28176;SDS011;15461;41.652;9.378;2023-06-24T05:24:37;29.25;;;7.97;;
28176;SDS011;15461;41.652;9.378;2023-06-24T05:27:04;27.10;;;7.95;;
28176;SDS011;15461;41.652;9.378;2023-06-24T05:29:31;26.25;;;7.53;;
28176;SDS011;15461;41.652;9.378;2023-06-24T05:31:57;22.25;;;7.40;;
28176;SDS011;15461;41.652;9.378;2023-06-24T05:34:24;20.48;;;7.00;;
28176;SDS011;15461;41.652;9.378;2023-06-24T05:36:49;21.35;;;7.55;;
28176;SDS011;15461;41.652;9.378;2023-06-24T05:39:15;22.33;;;7.07;;
28176;SDS011;15461;41.652;9.378;2023-06-24T05:41:41;23.27;;;7.78;;
28176;SDS011;15461;41.652;9.378;2023-06-24T05:44:08;18.85;;;7.60;;
28176;SDS011;15461;41.652;9.378;2023-06-24T05:46:35;19.77;;;7.38;;
28176;SDS011;15461;41.652;9.378;2023-06-24T05:49:01;24.25;;;7.60;;
28176;SDS011;15461;41.652;9.378;2023-06-24T05:51:27;17.10;;;6.50;;
28176;SDS011;15461;41.652;9.378;2023-06-24T05:53:53;27.58;;;7.75;;
28176;SDS011;15461;41.652;9.378;2023-06-24T05:56:20;22.27;;;7.00;;
28176;SDS011;15461;41.652;9.378;2023-06-24T05:58:47;23.65;;;7.70;;
28176;SDS011;15461;41.652;9.378;2023-06-24T06:01:13;20.13;;;6.88;;
28176;SDS011;15461;41.652;9.378;2023-06-24T06:03:39;18.95;;;7.25;;
28176;SDS011;15461;41.652;9.378;2023-06-24T06:06:04;22.17;;;7.28;;
28176;SDS011;15461;41.652;9.378;2023-06-24T06:08:30;20.85;;;7.55;;
28176;SDS011;15461;41.652;9.378;2023-06-24T06:10:56;20.70;;;7.47;;
28176;SDS011;15461;41.652;9.378;2023-06-24T06:13:22;20.85;;;7.55;;
28176;SDS011;15461;41.652;9.378;2023-06-24T06:15:48;13.75;;;7.35;;
28176;SDS011;15461;41.652;9.378;2023-06-24T06:18:13;32.80;;;7.93;;
28176;SDS011;15461;41.652;9.378;2023-06-24T06:20:39;25.50;;;8.27;;
28176;SDS011;15461;41.652;9.378;2023-06-24T06:23:05;30.92;;;8.43;;
28176;SDS011;15461;41.652;9.378;2023-06-24T06:25:32;23.38;;;8.48;;
28176;SDS011;15461;41.652;9.378;2023-06-24T06:27:58;38.22;;;9.00;;
28176;SDS011;15461;41.652;9.378;2023-06-24T06:30:23;23.55;;;7.97;;
28176;SDS011;15461;41.652;9.378;2023-06-24T06:32:49;20.15;;;8.05;;
28176;SDS011;15461;41.652;9.378;2023-06-24T06:35:15;23.83;;;8.80;;
28176;SDS011;15461;41.652;9.378;2023-06-24T06:37:41;26.38;;;8.75;;
28176;SDS011;15461;41.652;9.378;2023-06-24T06:40:07;25.27;;;8.00;;
28176;SDS011;15461;41.652;9.378;2023-06-24T06:42:33;22.27;;;8.65;;
28176;SDS011;15461;41.652;9.378;2023-06-24T06:44:59;25.63;;;8.32;;
28176;SDS011;15461;41.652;9.378;2023-06-24T06:47:25;26.42;;;8.25;;
28176;SDS011;15461;41.652;9.378;2023-06-24T06:49:50;26.25;;;8.40;;
28176;SDS011;15461;41.652;9.378;2023-06-24T06:52:16;23.30;;;8.52;;
28176;SDS011;15461;41.652;9.378;2023-06-24T06:54:42;28.27;;;7.55;;
28176;SDS011;15461;41.652;9.378;2023-06-24T06:57:08;25.38;;;7.40;;
28176;SDS011;15461;41.652;9.378;2023-06-24T06:59:33;28.73;;;8.80;;
28176;SDS011;15461;41.652;9.378;2023-06-24T07:01:59;20.27;;;7.50;;
28176;SDS011;15461;41.652;9.378;2023-06-24T07:04:25;18.83;;;7.75;;
28176;SDS011;15461;41.652;9.378;2023-06-24T07:06:51;22.42;;;7.57;;
28176;SDS011;15461;41.652;9.378;2023-06-24T07:09:17;24.20;;;8.48;;
28176;SDS011;15461;41.652;9.378;2023-06-24T07:11:43;23.70;;;7.90;;
28176;SDS011;15461;41.652;9.378;2023-06-24T07:14:09;19.58;;;7.70;;
28176;SDS011;15461;41.652;9.378;2023-06-24T07:16:35;19.08;;;8.32;;
28176;SDS011;15461;41.652;9.378;2023-06-24T07:19:01;22.13;;;8.30;;
28176;SDS011;15461;41.652;9.378;2023-06-24T07:21:27;25.20;;;7.72;;
28176;SDS011;15461;41.652;9.378;2023-06-24T07:23:53;23.60;;;8.45;;
28176;SDS011;15461;41.652;9.378;2023-06-24T07:26:19;17.88;;;8.25;;
28176;SDS011;15461;41.652;9.378;2023-06-24T07:28:44;21.88;;;7.78;;
28176;SDS011;15461;41.652;9.378;2023-06-24T07:31:11;24.17;;;7.95;;
28176;SDS011;15461;41.652;9.378;2023-06-24T07:33:37;22.98;;;7.53;;
28176;SDS011;15461;41.652;9.378;2023-06-24T07:36:02;19.92;;;7.70;;
28176;SDS011;15461;41.652;9.378;2023-06-24T07:38:29;21.33;;;7.55;;
28176;SDS011;15461;41.652;9.378;2023-06-24T07:40:55;20.27;;;7.90;;
28176;SDS011;15461;41.652;9.378;2023-06-24T07:43:21;22.38;;;7.97;;
28176;SDS011;15461;41.652;9.378;2023-06-24T07:45:47;24.08;;;8.15;;
28176;SDS011;15461;41.652;9.378;2023-06-24T07:48:12;24.25;;;8.07;;
28176;SDS011;15461;41.652;9.378;2023-06-24T07:50:38;24.90;;;8.43;;
28176;SDS011;15461;41.652;9.378;2023-06-24T07:53:04;21.48;;;7.55;;
28176;SDS011;15461;41.652;9.378;2023-06-24T07:55:31;25.80;;;8.00;;
28176;SDS011;15461;41.652;9.378;2023-06-24T07:57:57;21.67;;;7.85;;
28176;SDS011;15461;41.652;9.378;2023-06-24T08:00:28;23.60;;;8.32;;
28176;SDS011;15461;41.652;9.378;2023-06-24T08:02:54;18.02;;;7.50;;
28176;SDS011;15461;41.652;9.378;2023-06-24T08:05:20;18.10;;;7.40;;
28176;SDS011;15461;41.652;9.378;2023-06-24T08:07:46;19.17;;;8.10;;
28176;SDS011;15461;41.652;9.378;2023-06-24T08:10:12;20.80;;;7.63;;
28176;SDS011;15461;41.652;9.378;2023-06-24T08:12:38;23.48;;;7.30;;
28176;SDS011;15461;41.652;9.378;2023-06-24T08:15:04;19.30;;;7.63;;
28176;SDS011;15461;41.652;9.378;2023-06-24T08:17:30;21.45;;;7.43;;
28176;SDS011;15461;41.652;9.378;2023-06-24T08:19:56;18.73;;;7.53;;
28176;SDS011;15461;41.652;9.378;2023-06-24T08:22:21;21.70;;;8.05;;
28176;SDS011;15461;41.652;9.378;2023-06-24T08:24:47;30.60;;;8.07;;
28176;SDS011;15461;41.652;9.378;2023-06-24T08:27:13;25.75;;;7.90;;
28176;SDS011;15461;41.652;9.378;2023-06-24T08:29:39;21.20;;;7.38;;
28176;SDS011;15461;41.652;9.378;2023-06-24T08:32:05;21.17;;;7.43;;
28176;SDS011;15461;41.652;9.378;2023-06-24T08:34:33;23.98;;;6.95;;
28176;SDS011;15461;41.652;9.378;2023-06-24T08:36:59;22.55;;;7.75;;
28176;SDS011;15461;41.652;9.378;2023-06-24T08:39:25;20.05;;;7.30;;
28176;SDS011;15461;41.652;9.378;2023-06-24T08:41:51;23.90;;;7.90;;
28176;SDS011;15461;41.652;9.378;2023-06-24T08:44:17;18.05;;;7.03;;
28176;SDS011;15461;41.652;9.378;2023-06-24T08:46:43;22.67;;;7.30;;
28176;SDS011;15461;41.652;9.378;2023-06-24T08:51:49;20.17;;;7.28;;
28176;SDS011;15461;41.652;9.378;2023-06-24T08:54:20;19.50;;;7.63;;
28176;SDS011;15461;41.652;9.378;2023-06-24T08:56:46;19.88;;;7.90;;
28176;SDS011;15461;41.652;9.378;2023-06-24T08:59:12;20.70;;;7.00;;
28176;SDS011;15461;41.652;9.378;2023-06-24T09:01:38;23.42;;;7.25;;
28176;SDS011;15461;41.652;9.378;2023-06-24T09:04:04;19.40;;;6.80;;
28176;SDS011;15461;41.652;9.378;2023-06-24T09:06:31;21.67;;;7.15;;
28176;SDS011;15461;41.652;9.378;2023-06-24T09:08:57;19.58;;;6.60;;
28176;SDS011;15461;41.652;9.378;2023-06-24T09:11:26;17.27;;;6.80;;
28176;SDS011;15461;41.652;9.378;2023-06-24T09:13:56;16.80;;;6.50;;
28176;SDS011;15461;41.652;9.378;2023-06-24T09:16:23;28.48;;;7.75;;
28176;SDS011;15461;41.652;9.378;2023-06-24T09:18:50;17.83;;;7.55;;
28176;SDS011;15461;41.652;9.378;2023-06-24T09:21:26;22.08;;;7.25;;
28176;SDS011;15461;41.652;9.378;2023-06-24T09:23:56;21.23;;;7.03;;
28176;SDS011;15461;41.652;9.378;2023-06-24T09:26:23;23.65;;;7.88;;
28176;SDS011;15461;41.652;9.378;2023-06-24T09:28:50;18.00;;;7.57;;
28176;SDS011;15461;41.652;9.378;2023-06-24T09:31:17;20.10;;;7.68;;
28176;SDS011;15461;41.652;9.378;2023-06-24T09:33:43;21.52;;;7.22;;
28176;SDS011;15461;41.652;9.378;2023-06-24T09:36:13;21.10;;;6.68;;
28176;SDS011;15461;41.652;9.378;2023-06-24T09:38:41;23.05;;;6.85;;
28176;SDS011;15461;41.652;9.378;2023-06-24T09:41:10;21.20;;;7.40;;
28176;SDS011;15461;41.652;9.378;2023-06-24T09:43:37;21.85;;;7.22;;
28176;SDS011;15461;41.652;9.378;2023-06-24T09:46:07;16.67;;;6.60;;
28176;SDS011;15461;41.652;9.378;2023-06-24T09:48:33;24.52;;;7.97;;
28176;SDS011;15461;41.652;9.378;2023-06-24T09:51:01;22.35;;;7.75;;
28176;SDS011;15461;41.652;9.378;2023-06-24T09:53:32;21.60;;;7.10;;
28176;SDS011;15461;41.652;9.378;2023-06-24T09:56:08;21.65;;;7.30;;
28176;SDS011;15461;41.652;9.378;2023-06-24T09:58:36;20.08;;;7.32;;
28176;SDS011;15461;41.652;9.378;2023-06-24T10:01:03;18.23;;;7.10;;
28176;SDS011;15461;41.652;9.378;2023-06-24T10:03:31;17.85;;;7.20;;
28176;SDS011;15461;41.652;9.378;2023-06-24T10:05:59;21.10;;;6.90;;
28176;SDS011;15461;41.652;9.378;2023-06-24T10:08:31;18.80;;;6.82;;
28176;SDS011;15461;41.652;9.378;2023-06-24T10:10:58;23.00;;;6.80;;
28176;SDS011;15461;41.652;9.378;2023-06-24T10:13:25;19.40;;;6.80;;
28176;SDS011;15461;41.652;9.378;2023-06-24T10:15:51;20.92;;;6.82;;
28176;SDS011;15461;41.652;9.378;2023-06-24T10:18:33;29.15;;;7.38;;
28176;SDS011;15461;41.652;9.378;2023-06-24T10:29:14;14.27;;;5.80;;
28176;SDS011;15461;41.652;9.378;2023-06-24T10:37:18;21.17;;;6.15;;
28176;SDS011;15461;41.652;9.378;2023-06-24T10:45:12;16.90;;;6.10;;
28176;SDS011;15461;41.652;9.378;2023-06-24T10:47:40;14.52;;;5.28;;
28176;SDS011;15461;41.652;9.378;2023-06-24T10:50:08;19.50;;;5.78;;
28176;SDS011;15461;41.652;9.378;2023-06-24T10:52:39;16.80;;;5.57;;
28176;SDS011;15461;41.652;9.378;2023-06-24T10:55:08;17.13;;;5.90;;
28176;SDS011;15461;41.652;9.378;2023-06-24T10:57:34;20.52;;;5.78;;
28176;SDS011;15461;41.652;9.378;2023-06-24T11:00:00;19.73;;;6.10;;
28176;SDS011;15461;41.652;9.378;2023-06-24T11:02:28;16.48;;;5.93;;
28176;SDS011;15461;41.652;9.378;2023-06-24T11:04:55;15.85;;;5.60;;
28176;SDS011;15461;41.652;9.378;2023-06-24T11:07:23;13.75;;;5.50;;
28176;SDS011;15461;41.652;9.378;2023-06-24T11:09:53;14.18;;;5.53;;
28176;SDS011;15461;41.652;9.378;2023-06-24T11:12:24;16.73;;;5.82;;
28176;SDS011;15461;41.652;9.378;2023-06-24T11:14:51;13.05;;;5.47;;
28176;SDS011;15461;41.652;9.378;2023-06-24T11:17:20;14.88;;;5.68;;
28176;SDS011;15461;41.652;9.378;2023-06-24T11:19:46;17.75;;;5.47;;
28176;SDS011;15461;41.652;9.378;2023-06-24T11:22:12;18.40;;;5.55;;
28176;SDS011;15461;41.652;9.378;2023-06-24T11:24:37;14.70;;;5.45;;
28176;SDS011;15461;41.652;9.378;2023-06-24T11:27:05;17.38;;;5.70;;
28176;SDS011;15461;41.652;9.378;2023-06-24T11:29:31;13.38;;;5.05;;
28176;SDS011;15461;41.652;9.378;2023-06-24T11:31:58;19.38;;;5.55;;
28176;SDS011;15461;41.652;9.378;2023-06-24T11:34:24;19.35;;;5.63;;
28176;SDS011;15461;41.652;9.378;2023-06-24T11:36:50;20.42;;;5.78;;
28176;SDS011;15461;41.652;9.378;2023-06-24T11:39:22;14.50;;;5.75;;
28176;SDS011;15461;41.652;9.378;2023-06-24T11:41:52;11.88;;;5.28;;
28176;SDS011;15461;41.652;9.378;2023-06-24T11:44:23;15.68;;;5.13;;
28176;SDS011;15461;41.652;9.378;2023-06-24T11:46:49;14.60;;;5.80;;
28176;SDS011;15461;41.652;9.378;2023-06-24T11:49:16;19.42;;;5.03;;
28176;SDS011;15461;41.652;9.378;2023-06-24T11:51:47;13.75;;;5.45;;
28176;SDS011;15461;41.652;9.378;2023-06-24T11:54:14;15.88;;;5.40;;
28176;SDS011;15461;41.652;9.378;2023-06-24T11:56:49;14.88;;;5.30;;
28176;SDS011;15461;41.652;9.378;2023-06-24T11:59:18;13.50;;;5.33;;
28176;SDS011;15461;41.652;9.378;2023-06-24T12:01:46;18.08;;;5.88;;
28176;SDS011;15461;41.652;9.378;2023-06-24T12:04:31;17.27;;;5.10;;
28176;SDS011;15461;41.652;9.378;2023-06-24T12:07:02;15.52;;;5.18;;
28176;SDS011;15461;41.652;9.378;2023-06-24T12:09:28;12.07;;;4.80;;
28176;SDS011;15461;41.652;9.378;2023-06-24T12:11:54;13.15;;;5.30;;
28176;SDS011;15461;41.652;9.378;2023-06-24T12:14:20;13.68;;;4.97;;
28176;SDS011;15461;41.652;9.378;2023-06-24T12:16:46;17.52;;;4.78;;
28176;SDS011;15461;41.652;9.378;2023-06-24T12:19:12;14.88;;;5.03;;
28176;SDS011;15461;41.652;9.378;2023-06-24T12:21:37;12.10;;;5.13;;
28176;SDS011;15461;41.652;9.378;2023-06-24T12:24:04;13.18;;;5.47;;
28176;SDS011;15461;41.652;9.378;2023-06-24T12:26:30;12.80;;;5.28;;
28176;SDS011;15461;41.652;9.378;2023-06-24T12:28:56;10.60;;;4.93;;
28176;SDS011;15461;41.652;9.378;2023-06-24T12:31:23;13.38;;;5.55;;
28176;SDS011;15461;41.652;9.378;2023-06-24T12:33:52;15.13;;;4.85;;
28176;SDS011;15461;41.652;9.378;2023-06-24T12:36:18;10.85;;;4.40;;
28176;SDS011;15461;41.652;9.378;2023-06-24T12:38:46;13.15;;;4.43;;
28176;SDS011;15461;41.652;9.378;2023-06-24T12:41:12;10.63;;;4.22;;
28176;SDS011;15461;41.652;9.378;2023-06-24T12:43:38;8.93;;;3.95;;
28176;SDS011;15461;41.652;9.378;2023-06-24T12:46:03;12.13;;;4.32;;
28176;SDS011;15461;41.652;9.378;2023-06-24T12:48:29;8.98;;;4.13;;
28176;SDS011;15461;41.652;9.378;2023-06-24T12:50:55;10.77;;;4.00;;
28176;SDS011;15461;41.652;9.378;2023-06-24T12:53:21;11.35;;;4.32;;
28176;SDS011;15461;41.652;9.378;2023-06-24T12:55:47;19.00;;;4.65;;
28176;SDS011;15461;41.652;9.378;2023-06-24T12:58:13;9.38;;;4.10;;
28176;SDS011;15461;41.652;9.378;2023-06-24T13:00:43;11.05;;;4.47;;
28176;SDS011;15461;41.652;9.378;2023-06-24T13:03:09;10.13;;;4.30;;
28176;SDS011;15461;41.652;9.378;2023-06-24T13:05:35;10.80;;;4.30;;
28176;SDS011;15461;41.652;9.378;2023-06-24T13:08:01;12.02;;;4.43;;
28176;SDS011;15461;41.652;9.378;2023-06-24T13:10:27;11.98;;;4.00;;
28176;SDS011;15461;41.652;9.378;2023-06-24T13:12:53;13.30;;;4.18;;
28176;SDS011;15461;41.652;9.378;2023-06-24T13:15:18;7.32;;;4.00;;
28176;SDS011;15461;41.652;9.378;2023-06-24T13:17:44;9.25;;;3.58;;
28176;SDS011;15461;41.652;9.378;2023-06-24T13:20:10;8.77;;;4.00;;
28176;SDS011;15461;41.652;9.378;2023-06-24T13:22:36;8.70;;;4.20;;
28176;SDS011;15461;41.652;9.378;2023-06-24T13:25:02;7.75;;;3.67;;
28176;SDS011;15461;41.652;9.378;2023-06-24T13:27:28;11.38;;;4.22;;
28176;SDS011;15461;41.652;9.378;2023-06-24T13:29:54;11.43;;;3.80;;
28176;SDS011;15461;41.652;9.378;2023-06-24T13:32:20;10.35;;;3.45;;
28176;SDS011;15461;41.652;9.378;2023-06-24T13:34:46;8.05;;;3.80;;
28176;SDS011;15461;41.652;9.378;2023-06-24T13:37:11;11.75;;;4.03;;
28176;SDS011;15461;41.652;9.378;2023-06-24T13:39:37;10.85;;;3.67;;
28176;SDS011;15461;41.652;9.378;2023-06-24T13:42:03;13.25;;;4.22;;
28176;SDS011;15461;41.652;9.378;2023-06-24T13:44:29;11.15;;;4.40;;
28176;SDS011;15461;41.652;9.378;2023-06-24T13:46:55;12.13;;;3.97;;
28176;SDS011;15461;41.652;9.378;2023-06-24T13:49:20;11.88;;;4.45;;
28176;SDS011;15461;41.652;9.378;2023-06-24T13:51:46;13.27;;;4.13;;
28176;SDS011;15461;41.652;9.378;2023-06-24T13:54:12;9.18;;;3.75;;
28176;SDS011;15461;41.652;9.378;2023-06-24T13:56:38;8.75;;;3.72;;
28176;SDS011;15461;41.652;9.378;2023-06-24T13:59:04;10.38;;;3.95;;
28176;SDS011;15461;41.652;9.378;2023-06-24T14:01:30;9.75;;;3.67;;
28176;SDS011;15461;41.652;9.378;2023-06-24T14:03:56;8.73;;;3.92;;
28176;SDS011;15461;41.652;9.378;2023-06-24T14:06:23;14.13;;;4.35;;
28176;SDS011;15461;41.652;9.378;2023-06-24T14:08:50;10.48;;;4.18;;
28176;SDS011;15461;41.652;9.378;2023-06-24T14:11:16;12.00;;;4.07;;
28176;SDS011;15461;41.652;9.378;2023-06-24T14:13:42;8.60;;;4.65;;
28176;SDS011;15461;41.652;9.378;2023-06-24T14:16:09;12.77;;;4.20;;
28176;SDS011;15461;41.652;9.378;2023-06-24T14:18:36;10.68;;;4.43;;
28176;SDS011;15461;41.652;9.378;2023-06-24T14:21:03;10.13;;;4.40;;
28176;SDS011;15461;41.652;9.378;2023-06-24T14:23:30;10.48;;;4.30;;
28176;SDS011;15461;41.652;9.378;2023-06-24T14:25:56;15.65;;;4.40;;
28176;SDS011;15461;41.652;9.378;2023-06-24T14:28:23;11.70;;;4.93;;
28176;SDS011;15461;41.652;9.378;2023-06-24T14:30:49;8.45;;;4.30;;
28176;SDS011;15461;41.652;9.378;2023-06-24T14:33:15;12.82;;;4.70;;
28176;SDS011;15461;41.652;9.378;2023-06-24T14:35:41;9.02;;;4.10;;
28176;SDS011;15461;41.652;9.378;2023-06-24T14:38:07;12.15;;;4.47;;
28176;SDS011;15461;41.652;9.378;2023-06-24T14:40:32;10.93;;;4.65;;
28176;SDS011;15461;41.652;9.378;2023-06-24T14:42:59;13.23;;;4.32;;
28176;SDS011;15461;41.652;9.378;2023-06-24T14:45:25;14.20;;;4.55;;
28176;SDS011;15461;41.652;9.378;2023-06-24T14:47:51;14.80;;;4.28;;
28176;SDS011;15461;41.652;9.378;2023-06-24T14:50:17;11.65;;;4.10;;
28176;SDS011;15461;41.652;9.378;2023-06-24T14:52:43;14.82;;;4.30;;
28176;SDS011;15461;41.652;9.378;2023-06-24T14:55:09;15.98;;;4.70;;
28176;SDS011;15461;41.652;9.378;2023-06-24T14:57:35;13.35;;;4.40;;
28176;SDS011;15461;41.652;9.378;2023-06-24T15:00:05;11.00;;;4.50;;
28176;SDS011;15461;41.652;9.378;2023-06-24T15:02:32;13.25;;;4.60;;
28176;SDS011;15461;41.652;9.378;2023-06-24T15:04:58;12.38;;;4.45;;
28176;SDS011;15461;41.652;9.378;2023-06-24T15:07:24;10.60;;;4.15;;
28176;SDS011;15461;41.652;9.378;2023-06-24T15:09:50;15.25;;;4.95;;